createdAt,value
2022-12-09T00:01:06.215Z,7.17
2022-12-09T00:03:33.926Z,6.57
2022-12-09T00:06:14.976Z,7.50
2022-12-09T00:08:42.531Z,6.93
2022-12-09T00:11:10.186Z,7.23
2022-12-09T00:13:37.916Z,7.30
2022-12-09T00:16:07.540Z,6.70
2022-12-09T00:18:35.559Z,7.47
2022-12-09T00:21:22.620Z,7.40
2022-12-09T00:23:51.644Z,6.17
2022-12-09T00:26:21.184Z,6.53
2022-12-09T00:28:50.021Z,6.77
2022-12-09T00:31:21.717Z,6.73
2022-12-09T00:33:49.013Z,6.43
2022-12-09T00:36:19.632Z,6.20
2022-12-09T00:38:47.912Z,6.67
2022-12-09T00:41:16.555Z,7.30
2022-12-09T00:43:45.878Z,7.07
2022-12-09T00:46:13.931Z,6.03
2022-12-09T00:48:42.606Z,5.80
2022-12-09T00:51:13.254Z,6.30
2022-12-09T00:53:40.644Z,5.93
2022-12-09T00:56:08.381Z,5.67
2022-12-09T00:58:35.947Z,6.13
2022-12-09T01:01:03.578Z,6.30
2022-12-09T01:03:31.209Z,5.53
2022-12-09T01:05:58.667Z,6.03
2022-12-09T01:08:26.141Z,5.70
2022-12-09T01:10:53.648Z,5.67
2022-12-09T01:13:21.085Z,5.80
2022-12-09T01:15:48.397Z,4.63
2022-12-09T01:18:15.803Z,6.10
2022-12-09T01:20:43.256Z,5.23
2022-12-09T01:23:11.070Z,5.60
2022-12-09T01:25:39.314Z,6.13
2022-12-09T01:28:06.732Z,6.00
2022-12-09T01:30:34.005Z,5.73
2022-12-09T01:33:01.897Z,5.80
2022-12-09T01:35:29.394Z,6.40
2022-12-09T01:37:56.826Z,6.27
2022-12-09T01:40:24.309Z,6.30
2022-12-09T01:42:51.681Z,6.43
2022-12-09T01:45:23.508Z,5.67
2022-12-09T01:48:12.204Z,5.67
2022-12-09T01:50:50.666Z,6.77
2022-12-09T01:53:19.896Z,5.60
2022-12-09T01:55:48.192Z,6.43
2022-12-09T01:58:18.314Z,5.63
2022-12-09T02:00:46.963Z,5.90
2022-12-09T02:03:14.830Z,7.37
2022-12-09T02:05:43.918Z,5.87
2022-12-09T02:08:13.623Z,6.30
2022-12-09T02:10:56.590Z,5.57
2022-12-09T02:13:48.612Z,6.30
2022-12-09T02:16:21.434Z,6.67
2022-12-09T02:18:59.634Z,6.03
2022-12-09T02:21:42.239Z,7.17
2022-12-09T02:24:18.481Z,5.90
2022-12-09T02:26:57.591Z,6.47
2022-12-09T02:29:51.136Z,6.40
2022-12-09T02:32:19.050Z,6.80
2022-12-09T02:35:05.591Z,7.03
2022-12-09T02:37:46.164Z,6.60
2022-12-09T02:40:21.273Z,6.20
2022-12-09T02:42:50.142Z,7.13
2022-12-09T02:45:19.743Z,7.00
2022-12-09T02:47:52.788Z,6.57
2022-12-09T02:50:25.449Z,6.03
2022-12-09T02:52:54.556Z,6.70
2022-12-09T02:55:23.108Z,7.33
2022-12-09T02:57:55.139Z,6.87
2022-12-09T03:00:23.476Z,6.23
2022-12-09T03:02:55.564Z,6.23
2022-12-09T03:05:30.668Z,7.73
2022-12-09T03:08:10.370Z,6.70
2022-12-09T03:10:48.112Z,7.17
2022-12-09T03:13:27.334Z,6.53
2022-12-09T03:16:09.962Z,6.97
2022-12-09T03:18:41.351Z,7.57
2022-12-09T03:21:09.205Z,7.03
2022-12-09T03:23:37.510Z,7.00
2022-12-09T03:26:06.308Z,7.90
2022-12-09T03:28:43.110Z,6.63
2022-12-09T03:31:14.846Z,7.43
2022-12-09T03:33:46.142Z,6.23
2022-12-09T03:36:15.539Z,6.60
2022-12-09T03:38:46.912Z,7.70
2022-12-09T03:41:25.857Z,7.50
2022-12-09T03:43:57.963Z,6.40
2022-12-09T03:46:26.004Z,7.40
2022-12-09T03:48:53.233Z,7.10
2022-12-09T03:51:46.160Z,7.87
2022-12-09T03:54:20.856Z,6.93
2022-12-09T03:56:51.983Z,6.87
2022-12-09T03:59:20.040Z,7.77
2022-12-09T04:01:47.946Z,6.70
2022-12-09T04:04:16.944Z,7.37
2022-12-09T04:06:44.305Z,7.13
2022-12-09T04:09:12.401Z,7.87
2022-12-09T04:11:39.871Z,6.90
2022-12-09T04:14:13.696Z,7.33
2022-12-09T04:16:43.560Z,7.07
2022-12-09T04:19:11.053Z,7.20
2022-12-09T04:21:38.586Z,8.03
2022-12-09T04:24:06.419Z,7.20
2022-12-09T04:26:35.079Z,7.93
2022-12-09T04:29:02.526Z,8.47
2022-12-09T04:31:29.991Z,6.87
2022-12-09T04:33:57.433Z,7.60
2022-12-09T04:36:25.056Z,7.10
2022-12-09T04:38:52.398Z,8.17
2022-12-09T04:41:19.711Z,7.53
2022-12-09T04:43:48.849Z,8.30
2022-12-09T04:46:17.855Z,9.10
2022-12-09T04:48:45.710Z,8.27
2022-12-09T04:51:15.506Z,8.37
2022-12-09T04:53:43.434Z,7.30
2022-12-09T04:56:15.298Z,6.97
2022-12-09T04:58:44.944Z,7.77
2022-12-09T05:01:17.746Z,8.23
2022-12-09T05:03:54.014Z,8.13
2022-12-09T05:06:22.955Z,8.23
2022-12-09T05:08:51.267Z,8.37
2022-12-09T05:11:20.642Z,8.40
2022-12-09T05:13:48.546Z,7.83
2022-12-09T05:16:18.359Z,8.37
2022-12-09T05:18:47.589Z,7.77
2022-12-09T05:21:17.927Z,9.07
2022-12-09T05:23:45.877Z,8.23
2022-12-09T05:26:17.309Z,8.20
2022-12-09T05:28:45.167Z,8.23
2022-12-09T05:31:18.095Z,7.83
2022-12-09T05:33:46.851Z,7.93
2022-12-09T05:36:16.937Z,8.90
2022-12-09T05:38:44.689Z,8.27
2022-12-09T05:41:12.990Z,8.47
2022-12-09T05:43:41.064Z,7.70
2022-12-09T05:46:10.239Z,7.00
2022-12-09T05:48:37.732Z,8.17
2022-12-09T05:51:27.168Z,8.03
2022-12-09T05:53:55.769Z,7.83
2022-12-09T05:56:25.344Z,7.70
2022-12-09T05:58:53.500Z,7.03
2022-12-09T06:01:21.428Z,8.07
2022-12-09T06:03:50.995Z,8.07
2022-12-09T06:06:20.703Z,8.53
2022-12-09T06:08:48.578Z,7.40
2022-12-09T06:11:18.908Z,7.97
2022-12-09T06:13:47.817Z,8.50
2022-12-09T06:16:19.013Z,8.23
2022-12-09T06:18:47.468Z,8.93
2022-12-09T06:21:16.983Z,7.47
2022-12-09T06:23:44.921Z,8.37
2022-12-09T06:26:17.290Z,8.23
2022-12-09T06:28:47.447Z,8.03
2022-12-09T06:31:15.477Z,7.87
2022-12-09T06:33:54.680Z,8.70
2022-12-09T06:36:22.863Z,8.80
2022-12-09T06:38:52.028Z,9.10
2022-12-09T06:41:20.678Z,10.03
2022-12-09T06:43:48.274Z,9.93
2022-12-09T06:46:23.685Z,9.30
2022-12-09T06:48:52.912Z,9.03
2022-12-09T06:51:21.572Z,8.73
2022-12-09T06:53:48.984Z,8.97
2022-12-09T06:56:17.137Z,9.83
2022-12-09T06:58:45.958Z,10.80
2022-12-09T07:01:24.866Z,9.57
2022-12-09T07:03:55.552Z,9.67
2022-12-09T07:06:38.538Z,8.40
2022-12-09T07:09:15.097Z,9.07
2022-12-09T07:11:46.207Z,10.77
2022-12-09T07:14:15.431Z,8.83
2022-12-09T07:16:43.612Z,9.63
2022-12-09T07:19:30.847Z,8.73
2022-12-09T07:21:58.612Z,9.07
2022-12-09T07:24:26.665Z,8.93
2022-12-09T07:26:54.458Z,8.93
2022-12-09T07:29:21.783Z,8.50
2022-12-09T07:31:49.532Z,9.20
2022-12-09T07:34:17.621Z,8.50
2022-12-09T07:36:45.430Z,9.80
2022-12-09T07:39:18.000Z,9.23
2022-12-09T07:41:48.588Z,8.03
2022-12-09T07:44:16.258Z,9.70
2022-12-09T07:46:43.867Z,8.10
2022-12-09T07:49:12.877Z,9.80
2022-12-09T07:51:40.824Z,8.77
2022-12-09T07:54:15.276Z,8.43
2022-12-09T07:56:43.517Z,8.17
2022-12-09T07:59:13.688Z,9.07
2022-12-09T08:01:41.654Z,8.93
2022-12-09T08:04:09.376Z,9.20
2022-12-09T08:06:38.035Z,8.53
2022-12-09T08:09:08.387Z,9.13
2022-12-09T08:11:36.060Z,9.73
2022-12-09T08:14:10.813Z,8.33
2022-12-09T08:16:40.766Z,8.90
2022-12-09T08:19:09.175Z,9.53
2022-12-09T08:21:36.847Z,8.50
2022-12-09T08:24:07.824Z,8.47
2022-12-09T08:26:37.560Z,8.83
2022-12-09T08:29:10.486Z,8.20
2022-12-09T08:31:41.829Z,9.10
2022-12-09T08:34:10.269Z,9.00
2022-12-09T08:36:38.056Z,9.67
2022-12-09T08:39:06.173Z,8.13
2022-12-09T08:41:36.872Z,8.83
2022-12-09T08:44:10.600Z,9.43
2022-12-09T08:46:40.815Z,9.13
2022-12-09T08:49:09.330Z,9.50
2022-12-09T08:51:37.433Z,9.93
2022-12-09T08:54:06.021Z,9.13
2022-12-09T08:56:33.716Z,9.43
2022-12-09T08:59:02.173Z,9.33
2022-12-09T09:01:35.875Z,9.53
2022-12-09T09:04:08.739Z,8.87
2022-12-09T09:06:39.470Z,10.10
2022-12-09T09:09:09.080Z,9.57
2022-12-09T09:11:37.510Z,10.00
2022-12-09T09:14:07.107Z,8.97
2022-12-09T09:16:35.493Z,10.07
2022-12-09T09:19:05.841Z,10.53
2022-12-09T09:21:34.902Z,10.27
2022-12-09T09:24:07.878Z,11.57
2022-12-09T09:26:35.599Z,10.77
2022-12-09T09:29:03.379Z,12.53
2022-12-09T09:31:31.132Z,11.40
2022-12-09T09:33:58.877Z,10.30
2022-12-09T09:36:26.442Z,10.57
2022-12-09T09:38:56.728Z,12.00
2022-12-09T09:41:42.924Z,11.33
2022-12-09T09:44:23.287Z,11.20
2022-12-09T09:46:52.730Z,10.27
2022-12-09T09:49:37.618Z,10.80
2022-12-09T09:52:28.403Z,10.53
2022-12-09T09:54:57.098Z,10.13
2022-12-09T09:57:30.021Z,10.03
2022-12-09T10:00:30.008Z,10.83
2022-12-09T10:03:01.223Z,10.33
2022-12-09T10:05:35.746Z,11.10
2022-12-09T10:08:34.758Z,11.10
2022-12-09T10:11:19.842Z,10.83
2022-12-09T10:14:14.099Z,11.10
2022-12-09T10:16:48.390Z,10.87
2022-12-09T10:19:55.354Z,10.93
2022-12-09T10:22:27.183Z,10.40
2022-12-09T10:24:59.991Z,11.17
2022-12-09T10:27:45.393Z,10.83
2022-12-09T10:30:16.466Z,11.43
2022-12-09T10:32:45.197Z,10.07
2022-12-09T10:35:18.715Z,10.30
2022-12-09T10:37:47.934Z,10.13
2022-12-09T10:40:34.319Z,10.90
2022-12-09T10:43:42.403Z,11.33
2022-12-09T10:46:24.394Z,11.30
2022-12-09T10:48:57.594Z,10.13
2022-12-09T10:51:31.304Z,11.43
2022-12-09T10:54:21.934Z,11.00
2022-12-09T10:57:13.973Z,11.30
2022-12-09T10:59:56.936Z,10.53
2022-12-09T11:02:27.129Z,10.97
2022-12-09T11:04:54.870Z,11.10
2022-12-09T11:07:27.962Z,9.97
2022-12-09T11:10:01.886Z,10.50
2022-12-09T11:12:33.510Z,11.33
2022-12-09T11:15:07.622Z,11.47
2022-12-09T11:17:40.728Z,11.40
2022-12-09T11:20:21.547Z,10.43
2022-12-09T11:23:02.038Z,10.37
2022-12-09T11:25:36.057Z,10.50
2022-12-09T11:28:21.618Z,10.90
2022-12-09T11:31:27.103Z,9.37
2022-12-09T11:33:59.374Z,12.20
2022-12-09T11:36:43.992Z,10.73
2022-12-09T11:39:20.147Z,11.17
2022-12-09T11:42:19.968Z,11.27
2022-12-09T11:45:02.122Z,10.97
2022-12-09T11:50:37.000Z,11.90
2022-12-09T11:53:13.931Z,10.77
2022-12-09T11:55:57.469Z,11.30
2022-12-09T11:58:39.350Z,11.13
2022-12-09T12:01:16.127Z,11.60
2022-12-09T12:04:03.828Z,12.97
2022-12-09T12:06:47.085Z,12.40
2022-12-09T12:09:32.365Z,13.20
2022-12-09T12:12:22.349Z,13.50
2022-12-09T12:14:49.594Z,13.33
2022-12-09T12:17:34.586Z,13.17
2022-12-09T12:20:03.779Z,12.33
2022-12-09T12:22:56.438Z,14.43
2022-12-09T12:25:43.447Z,13.47
2022-12-09T12:28:32.189Z,12.00
2022-12-09T12:31:20.651Z,13.00
2022-12-09T12:34:34.297Z,12.87
2022-12-09T12:37:26.599Z,13.57
2022-12-09T12:40:26.548Z,11.60
2022-12-09T12:43:34.520Z,12.60
2022-12-09T12:46:17.313Z,12.93
2022-12-09T12:49:21.617Z,12.77
2022-12-09T12:52:53.856Z,12.27
2022-12-09T12:55:54.747Z,12.73
2022-12-09T12:58:47.005Z,12.60
2022-12-09T13:01:30.063Z,13.53
2022-12-09T13:04:08.506Z,13.53
2022-12-09T13:07:01.951Z,13.40
2022-12-09T13:09:38.324Z,12.27
2022-12-09T13:12:10.714Z,13.37
2022-12-09T13:14:53.936Z,12.93
2022-12-09T13:17:29.107Z,14.10
2022-12-09T13:20:01.105Z,13.23
2022-12-09T13:22:43.720Z,13.33
2022-12-09T13:25:35.114Z,13.47
2022-12-09T13:28:16.114Z,12.00
2022-12-09T13:30:54.316Z,13.30
2022-12-09T13:33:39.015Z,13.33
2022-12-09T13:36:06.894Z,12.60
2022-12-09T13:38:40.734Z,13.37
2022-12-09T13:41:26.569Z,13.87
2022-12-09T13:44:06.248Z,12.93
2022-12-09T13:46:34.914Z,15.23
2022-12-09T13:49:24.445Z,13.43
2022-12-09T13:51:54.388Z,13.23
2022-12-09T13:54:28.030Z,13.80
2022-12-09T13:57:23.913Z,13.27
2022-12-09T13:59:54.785Z,12.03
2022-12-09T14:02:27.932Z,14.20
2022-12-09T14:05:12.878Z,13.70
2022-12-09T14:07:48.549Z,13.20
2022-12-09T14:10:37.663Z,14.17
2022-12-09T14:13:30.887Z,13.60
2022-12-09T14:16:21.343Z,14.00
2022-12-09T14:18:48.611Z,13.87
2022-12-09T14:21:19.003Z,13.17
2022-12-09T14:24:25.496Z,13.50
2022-12-09T14:26:52.682Z,13.83
2022-12-09T14:29:53.627Z,13.20
2022-12-09T14:32:32.274Z,14.03
2022-12-09T14:35:06.267Z,14.07
2022-12-09T14:38:16.257Z,13.40
2022-12-09T14:41:01.588Z,13.03
2022-12-09T14:43:49.776Z,12.97
2022-12-09T14:46:31.487Z,13.90
2022-12-09T14:49:01.890Z,12.77
2022-12-09T14:51:40.108Z,13.03
2022-12-09T14:54:19.422Z,14.03
2022-12-09T14:56:52.399Z,12.70
2022-12-09T14:59:22.818Z,13.23
2022-12-09T15:01:52.554Z,13.37
2022-12-09T15:04:44.252Z,13.60
2022-12-09T15:07:28.045Z,13.47
2022-12-09T15:10:08.116Z,13.93
2022-12-09T15:12:40.092Z,13.80
2022-12-09T15:15:24.069Z,14.10
2022-12-09T15:17:58.641Z,13.40
2022-12-09T15:20:42.652Z,13.77
2022-12-09T15:23:21.080Z,13.03
2022-12-09T15:25:54.070Z,14.67
2022-12-09T15:28:30.094Z,14.70
2022-12-09T15:31:03.360Z,16.47
2022-12-09T15:33:38.694Z,15.93
2022-12-09T15:36:13.051Z,16.03
2022-12-09T15:38:45.531Z,15.40
2022-12-09T15:41:31.984Z,16.50
2022-12-09T15:44:06.100Z,14.63
2022-12-09T15:46:35.487Z,16.07
2022-12-09T15:49:04.226Z,17.57
2022-12-09T15:51:33.334Z,16.33
2022-12-09T15:54:04.597Z,15.60
2022-12-09T15:56:41.833Z,17.43
2022-12-09T15:59:24.897Z,16.07
2022-12-09T16:01:54.926Z,16.63
2022-12-09T16:04:25.227Z,16.03
2022-12-09T16:06:52.504Z,17.40
2022-12-09T16:09:21.186Z,18.93
2022-12-09T16:11:51.834Z,17.10
2022-12-09T16:14:21.449Z,15.50
2022-12-09T16:16:50.846Z,17.77
2022-12-09T16:19:41.826Z,17.27
2022-12-09T16:22:15.075Z,16.30
2022-12-09T16:25:14.558Z,16.63
2022-12-09T16:27:50.762Z,16.13
2022-12-09T16:30:23.419Z,16.03
2022-12-09T16:32:55.659Z,16.70
2022-12-09T16:35:43.980Z,16.97
2022-12-09T16:38:11.169Z,16.17
2022-12-09T16:40:44.293Z,17.30
2022-12-09T16:43:20.315Z,16.87
2022-12-09T16:45:56.153Z,18.30
2022-12-09T16:48:25.363Z,17.07
2022-12-09T16:51:17.661Z,17.57
2022-12-09T16:53:47.857Z,18.07
2022-12-09T16:56:29.886Z,17.47
2022-12-09T16:58:59.186Z,17.87
2022-12-09T17:01:35.147Z,16.10
2022-12-09T17:04:16.080Z,18.30
2022-12-09T17:06:46.703Z,19.00
2022-12-09T17:09:14.136Z,16.97
2022-12-09T17:11:46.962Z,15.67
2022-12-09T17:14:16.724Z,18.27
2022-12-09T17:16:44.388Z,17.93
2022-12-09T17:19:13.178Z,17.97
2022-12-09T17:21:40.411Z,18.53
2022-12-09T17:24:09.809Z,18.50
2022-12-09T17:26:37.368Z,19.17
2022-12-09T17:29:07.190Z,19.53
2022-12-09T17:31:34.567Z,18.27
2022-12-09T17:34:02.026Z,17.73
2022-12-09T17:36:29.236Z,16.80
2022-12-09T17:39:01.599Z,19.20
2022-12-09T17:41:29.026Z,19.07
2022-12-09T17:43:57.922Z,17.93
2022-12-09T17:46:25.563Z,19.53
2022-12-09T17:48:53.065Z,19.10
2022-12-09T17:51:20.419Z,18.60
2022-12-09T17:53:48.351Z,18.10
2022-12-09T17:56:18.146Z,20.13
2022-12-09T17:58:46.617Z,17.27
2022-12-09T18:01:20.037Z,18.67
2022-12-09T18:03:56.157Z,18.50
2022-12-09T18:06:25.632Z,18.23
2022-12-09T18:08:53.547Z,17.97
2022-12-09T18:11:22.339Z,19.17
2022-12-09T18:13:50.728Z,19.60
2022-12-09T18:16:18.455Z,18.17
2022-12-09T18:18:46.318Z,19.10
2022-12-09T18:21:15.908Z,18.07
2022-12-09T18:23:43.958Z,17.60
2022-12-09T18:26:16.041Z,19.50
2022-12-09T18:28:44.029Z,17.10
2022-12-09T18:31:14.996Z,18.20
2022-12-09T18:33:42.793Z,18.60
2022-12-09T18:36:13.339Z,19.27
2022-12-09T18:38:41.726Z,17.53
2022-12-09T18:41:20.869Z,17.03
2022-12-09T18:43:50.412Z,17.30
2022-12-09T18:46:25.634Z,17.50
2022-12-09T18:49:02.120Z,18.43
2022-12-09T18:51:29.921Z,18.83
2022-12-09T18:54:01.101Z,16.47
2022-12-09T18:56:29.067Z,16.90
2022-12-09T18:59:06.502Z,17.33
2022-12-09T19:01:39.712Z,18.40
2022-12-09T19:04:27.625Z,18.20
2022-12-09T19:06:57.935Z,17.97
2022-12-09T19:09:33.489Z,18.70
2022-12-09T19:12:22.996Z,18.93
2022-12-09T19:14:49.987Z,18.87
2022-12-09T19:17:18.848Z,18.10
2022-12-09T19:19:47.302Z,18.67
2022-12-09T19:22:14.734Z,18.60
2022-12-09T19:24:43.613Z,19.27
2022-12-09T19:27:11.114Z,18.20
2022-12-09T19:29:39.632Z,18.33
2022-12-09T19:32:23.617Z,19.43
2022-12-09T19:34:54.254Z,18.37
2022-12-09T19:37:22.140Z,20.00
2022-12-09T19:39:58.822Z,21.20
2022-12-09T19:42:26.287Z,19.10
2022-12-09T19:45:01.516Z,19.83
2022-12-09T19:47:29.877Z,19.97
2022-12-09T19:49:57.137Z,18.47
2022-12-09T19:52:24.469Z,18.10
2022-12-09T19:54:51.657Z,18.73
2022-12-09T19:57:18.924Z,20.33
2022-12-09T19:59:47.377Z,19.93
2022-12-09T20:02:17.823Z,18.90
2022-12-09T20:04:50.035Z,19.17
2022-12-09T20:07:20.607Z,20.07
2022-12-09T20:09:48.551Z,19.93
2022-12-09T20:12:16.383Z,21.60
2022-12-09T20:14:44.112Z,19.67
2022-12-09T20:17:11.552Z,22.43
2022-12-09T20:19:38.890Z,21.43
2022-12-09T20:22:06.431Z,19.47
2022-12-09T20:24:34.219Z,20.23
2022-12-09T20:27:01.603Z,20.00
2022-12-09T20:29:33.920Z,20.73
2022-12-09T20:32:04.770Z,21.53
2022-12-09T20:34:32.156Z,20.73
2022-12-09T20:36:59.597Z,23.30
2022-12-09T20:39:27.091Z,21.20
2022-12-09T20:41:54.482Z,22.67
2022-12-09T20:44:21.811Z,21.50
2022-12-09T20:46:51.178Z,22.17
2022-12-09T20:49:27.079Z,22.80
2022-12-09T20:51:55.120Z,21.40
2022-12-09T20:54:23.275Z,18.33
2022-12-09T20:56:50.995Z,20.50
2022-12-09T20:59:18.549Z,21.17
2022-12-09T21:01:47.067Z,19.30
2022-12-09T21:04:15.123Z,20.23
2022-12-09T21:06:42.728Z,20.03
2022-12-09T21:09:14.803Z,18.80
2022-12-09T21:11:42.175Z,20.60
2022-12-09T21:14:11.135Z,21.23
2022-12-09T21:16:41.182Z,20.33
2022-12-09T21:19:12.371Z,19.70
2022-12-09T21:21:42.037Z,19.03
2022-12-09T21:24:13.909Z,19.93
2022-12-09T21:26:41.849Z,21.30
2022-12-09T21:29:11.181Z,18.63
2022-12-09T21:31:40.928Z,19.77
2022-12-09T21:34:09.808Z,20.63
2022-12-09T21:36:40.740Z,20.57
2022-12-09T21:39:08.974Z,20.87
2022-12-09T21:41:37.284Z,19.70
2022-12-09T21:44:05.867Z,19.77
2022-12-09T21:46:35.713Z,19.90
2022-12-09T21:49:05.719Z,18.97
2022-12-09T21:51:34.526Z,19.07
2022-12-09T21:54:01.999Z,19.43
2022-12-09T21:56:31.328Z,19.00
2022-12-09T21:58:59.468Z,17.83
2022-12-09T22:01:30.527Z,18.70
2022-12-09T22:03:58.898Z,19.87
2022-12-09T22:06:26.564Z,19.80
2022-12-09T22:08:54.180Z,20.40
2022-12-09T22:11:24.273Z,18.63
2022-12-09T22:13:52.633Z,19.97
2022-12-09T22:16:23.645Z,19.20
2022-12-09T22:18:53.772Z,20.20
2022-12-09T22:21:25.709Z,19.07
2022-12-09T22:23:58.786Z,18.63
2022-12-09T22:26:26.875Z,20.60
2022-12-09T22:28:54.869Z,18.73
2022-12-09T22:31:28.699Z,18.90
2022-12-09T22:34:00.027Z,20.93
2022-12-09T22:36:28.473Z,18.33
2022-12-09T22:38:55.970Z,20.07
2022-12-09T22:41:26.283Z,20.73
2022-12-09T22:43:54.922Z,17.00
2022-12-09T22:46:25.465Z,20.07
2022-12-09T22:48:52.960Z,20.03
2022-12-09T22:51:25.465Z,22.07
2022-12-09T22:53:54.360Z,19.33
2022-12-09T22:56:23.030Z,19.27
2022-12-09T22:58:50.627Z,18.97
2022-12-09T23:01:26.776Z,19.07
2022-12-09T23:03:55.490Z,19.03
2022-12-09T23:06:23.748Z,18.87
2022-12-09T23:08:51.217Z,19.13
2022-12-09T23:11:23.591Z,20.23
2022-12-09T23:13:51.726Z,19.20
2022-12-09T23:16:21.487Z,18.90
2022-12-09T23:18:49.768Z,20.90
2022-12-09T23:21:23.599Z,18.53
2022-12-09T23:24:02.676Z,19.67
2022-12-09T23:26:33.987Z,19.40
2022-12-09T23:29:02.548Z,19.63
2022-12-09T23:31:33.151Z,19.73
2022-12-09T23:34:02.252Z,18.60
2022-12-09T23:36:35.565Z,18.00
2022-12-09T23:39:05.630Z,17.50
2022-12-09T23:41:32.979Z,17.77
2022-12-09T23:44:00.239Z,19.97
2022-12-09T23:46:29.855Z,18.80
2022-12-09T23:48:57.204Z,19.40
2022-12-09T23:51:30.026Z,20.17
2022-12-09T23:54:02.576Z,19.13
2022-12-09T23:56:32.825Z,19.80
2022-12-09T23:59:04.184Z,19.77
